sensor_id;sensor_type;location;lat;lon;timestamp;P1;durP1;ratioP1;P2;durP2;ratioP2
7199;SDS011;3641;49.082;8.200;2024-01-07T00:00:37;18.23;;;10.55;;
7199;SDS011;3641;49.082;8.200;2024-01-07T00:03:04;18.45;;;10.57;;
7199;SDS011;3641;49.082;8.200;2024-01-07T00:05:30;19.30;;;10.27;;
7199;SDS011;3641;49.082;8.200;2024-01-07T00:11:18;18.27;;;10.15;;
7199;SDS011;3641;49.082;8.200;2024-01-07T00:13:45;21.95;;;10.95;;
7199;SDS011;3641;49.082;8.200;2024-01-07T00:16:13;19.30;;;10.32;;
7199;SDS011;3641;49.082;8.200;2024-01-07T00:18:39;17.40;;;10.05;;
7199;SDS011;3641;49.082;8.200;2024-01-07T00:21:06;19.05;;;11.10;;
7199;SDS011;3641;49.082;8.200;2024-01-07T00:23:32;19.13;;;10.68;;
7199;SDS011;3641;49.082;8.200;2024-01-07T00:25:58;19.67;;;10.57;;
7199;SDS011;3641;49.082;8.200;2024-01-07T00:28:25;18.95;;;11.07;;
7199;SDS011;3641;49.082;8.200;2024-01-07T00:30:51;17.38;;;10.43;;
7199;SDS011;3641;49.082;8.200;2024-01-07T00:33:19;21.95;;;11.10;;
7199;SDS011;3641;49.082;8.200;2024-01-07T00:35:45;18.15;;;10.40;;
7199;SDS011;3641;49.082;8.200;2024-01-07T00:38:12;17.95;;;9.55;;
7199;SDS011;3641;49.082;8.200;2024-01-07T00:40:39;18.10;;;10.18;;
7199;SDS011;3641;49.082;8.200;2024-01-07T00:43:05;18.45;;;10.00;;
7199;SDS011;3641;49.082;8.200;2024-01-07T00:45:31;18.52;;;10.48;;
7199;SDS011;3641;49.082;8.200;2024-01-07T00:47:58;18.40;;;9.85;;
7199;SDS011;3641;49.082;8.200;2024-01-07T00:50:26;19.73;;;10.65;;
7199;SDS011;3641;49.082;8.200;2024-01-07T00:52:52;17.92;;;10.82;;
7199;SDS011;3641;49.082;8.200;2024-01-07T00:55:18;19.80;;;10.77;;
7199;SDS011;3641;49.082;8.200;2024-01-07T00:57:47;21.23;;;11.05;;
7199;SDS011;3641;49.082;8.200;2024-01-07T01:00:13;19.88;;;11.25;;
7199;SDS011;3641;49.082;8.200;2024-01-07T01:02:39;16.73;;;9.98;;
7199;SDS011;3641;49.082;8.200;2024-01-07T01:05:06;19.40;;;11.00;;
7199;SDS011;3641;49.082;8.200;2024-01-07T01:07:34;20.00;;;10.32;;
7199;SDS011;3641;49.082;8.200;2024-01-07T01:10:01;18.73;;;10.55;;
7199;SDS011;3641;49.082;8.200;2024-01-07T01:12:27;18.02;;;9.85;;
7199;SDS011;3641;49.082;8.200;2024-01-07T01:14:54;20.60;;;10.25;;
7199;SDS011;3641;49.082;8.200;2024-01-07T01:17:21;20.10;;;9.75;;
7199;SDS011;3641;49.082;8.200;2024-01-07T01:19:47;17.45;;;10.15;;
7199;SDS011;3641;49.082;8.200;2024-01-07T01:22:14;18.23;;;9.68;;
7199;SDS011;3641;49.082;8.200;2024-01-07T01:24:42;18.30;;;9.50;;
7199;SDS011;3641;49.082;8.200;2024-01-07T01:27:10;15.90;;;9.18;;
7199;SDS011;3641;49.082;8.200;2024-01-07T01:29:37;18.90;;;8.75;;
7199;SDS011;3641;49.082;8.200;2024-01-07T01:32:03;16.02;;;8.68;;
7199;SDS011;3641;49.082;8.200;2024-01-07T01:34:31;15.90;;;8.75;;
7199;SDS011;3641;49.082;8.200;2024-01-07T01:36:57;13.80;;;7.93;;
7199;SDS011;3641;49.082;8.200;2024-01-07T01:39:24;18.10;;;8.85;;
7199;SDS011;3641;49.082;8.200;2024-01-07T01:41:52;15.95;;;8.88;;
7199;SDS011;3641;49.082;8.200;2024-01-07T01:44:18;14.43;;;7.93;;
7199;SDS011;3641;49.082;8.200;2024-01-07T01:46:45;13.93;;;7.80;;
7199;SDS011;3641;49.082;8.200;2024-01-07T01:49:12;14.32;;;7.65;;
7199;SDS011;3641;49.082;8.200;2024-01-07T01:51:40;14.68;;;7.95;;
7199;SDS011;3641;49.082;8.200;2024-01-07T01:54:07;17.83;;;8.18;;
7199;SDS011;3641;49.082;8.200;2024-01-07T01:56:34;15.00;;;8.15;;
7199;SDS011;3641;49.082;8.200;2024-01-07T01:59:02;16.83;;;8.82;;
7199;SDS011;3641;49.082;8.200;2024-01-07T02:01:28;15.45;;;7.65;;
7199;SDS011;3641;49.082;8.200;2024-01-07T02:03:56;14.57;;;8.38;;
7199;SDS011;3641;49.082;8.200;2024-01-07T02:06:22;14.77;;;7.60;;
7199;SDS011;3641;49.082;8.200;2024-01-07T02:08:50;14.18;;;8.05;;
7199;SDS011;3641;49.082;8.200;2024-01-07T02:11:17;16.48;;;7.20;;
7199;SDS011;3641;49.082;8.200;2024-01-07T02:13:44;13.07;;;7.50;;
7199;SDS011;3641;49.082;8.200;2024-01-07T02:16:12;16.67;;;7.95;;
7199;SDS011;3641;49.082;8.200;2024-01-07T02:18:39;14.20;;;7.15;;
7199;SDS011;3641;49.082;8.200;2024-01-07T02:21:07;13.85;;;7.50;;
7199;SDS011;3641;49.082;8.200;2024-01-07T02:23:33;15.80;;;7.43;;
7199;SDS011;3641;49.082;8.200;2024-01-07T02:26:00;18.45;;;6.97;;
7199;SDS011;3641;49.082;8.200;2024-01-07T02:28:27;13.57;;;6.35;;
7199;SDS011;3641;49.082;8.200;2024-01-07T02:30:53;13.80;;;7.22;;
7199;SDS011;3641;49.082;8.200;2024-01-07T02:33:19;13.15;;;7.03;;
7199;SDS011;3641;49.082;8.200;2024-01-07T02:35:46;17.50;;;7.70;;
7199;SDS011;3641;49.082;8.200;2024-01-07T02:38:13;13.57;;;6.22;;
7199;SDS011;3641;49.082;8.200;2024-01-07T02:40:39;14.40;;;7.40;;
7199;SDS011;3641;49.082;8.200;2024-01-07T02:43:07;13.48;;;6.75;;
7199;SDS011;3641;49.082;8.200;2024-01-07T02:45:33;15.57;;;6.70;;
7199;SDS011;3641;49.082;8.200;2024-01-07T02:48:00;13.93;;;7.10;;
7199;SDS011;3641;49.082;8.200;2024-01-07T02:50:26;14.35;;;6.97;;
7199;SDS011;3641;49.082;8.200;2024-01-07T02:52:53;12.93;;;6.60;;
7199;SDS011;3641;49.082;8.200;2024-01-07T02:55:20;11.60;;;5.88;;
7199;SDS011;3641;49.082;8.200;2024-01-07T02:57:46;12.18;;;6.38;;
7199;SDS011;3641;49.082;8.200;2024-01-07T03:00:14;16.50;;;6.32;;
7199;SDS011;3641;49.082;8.200;2024-01-07T03:02:41;13.07;;;6.35;;
7199;SDS011;3641;49.082;8.200;2024-01-07T03:05:08;11.82;;;6.47;;
7199;SDS011;3641;49.082;8.200;2024-01-07T03:07:34;16.83;;;6.68;;
7199;SDS011;3641;49.082;8.200;2024-01-07T03:10:01;12.65;;;6.60;;
7199;SDS011;3641;49.082;8.200;2024-01-07T03:12:27;11.95;;;6.15;;
7199;SDS011;3641;49.082;8.200;2024-01-07T03:14:53;12.70;;;6.88;;
7199;SDS011;3641;49.082;8.200;2024-01-07T03:17:21;15.25;;;7.65;;
7199;SDS011;3641;49.082;8.200;2024-01-07T03:19:49;14.68;;;7.38;;
7199;SDS011;3641;49.082;8.200;2024-01-07T03:22:15;12.88;;;6.88;;
7199;SDS011;3641;49.082;8.200;2024-01-07T03:24:41;13.82;;;6.90;;
7199;SDS011;3641;49.082;8.200;2024-01-07T03:27:08;13.27;;;6.80;;
7199;SDS011;3641;49.082;8.200;2024-01-07T03:29:34;13.05;;;7.05;;
7199;SDS011;3641;49.082;8.200;2024-01-07T03:32:01;13.15;;;6.72;;
7199;SDS011;3641;49.082;8.200;2024-01-07T03:34:29;13.25;;;7.03;;
7199;SDS011;3641;49.082;8.200;2024-01-07T03:36:55;13.15;;;7.20;;
7199;SDS011;3641;49.082;8.200;2024-01-07T03:39:22;13.02;;;6.78;;
7199;SDS011;3641;49.082;8.200;2024-01-07T03:41:48;15.68;;;7.95;;
7199;SDS011;3641;49.082;8.200;2024-01-07T03:44:15;14.57;;;7.63;;
7199;SDS011;3641;49.082;8.200;2024-01-07T03:46:41;16.23;;;7.38;;
7199;SDS011;3641;49.082;8.200;2024-01-07T03:49:08;14.73;;;8.15;;
7199;SDS011;3641;49.082;8.200;2024-01-07T03:51:35;12.95;;;7.28;;
7199;SDS011;3641;49.082;8.200;2024-01-07T03:54:02;15.68;;;8.40;;
7199;SDS011;3641;49.082;8.200;2024-01-07T03:56:28;13.05;;;7.55;;
7199;SDS011;3641;49.082;8.200;2024-01-07T03:58:55;13.43;;;7.43;;
7199;SDS011;3641;49.082;8.200;2024-01-07T04:01:21;14.45;;;7.18;;
7199;SDS011;3641;49.082;8.200;2024-01-07T04:03:47;13.98;;;7.68;;
7199;SDS011;3641;49.082;8.200;2024-01-07T04:06:14;14.93;;;6.95;;
7199;SDS011;3641;49.082;8.200;2024-01-07T04:08:42;13.40;;;7.65;;
7199;SDS011;3641;49.082;8.200;2024-01-07T04:11:08;15.23;;;8.13;;
7199;SDS011;3641;49.082;8.200;2024-01-07T04:13:34;14.45;;;8.13;;
7199;SDS011;3641;49.082;8.200;2024-01-07T04:16:01;17.15;;;8.10;;
7199;SDS011;3641;49.082;8.200;2024-01-07T04:18:27;15.57;;;8.55;;
7199;SDS011;3641;49.082;8.200;2024-01-07T04:20:54;16.10;;;8.10;;
7199;SDS011;3641;49.082;8.200;2024-01-07T04:23:20;14.48;;;8.00;;
7199;SDS011;3641;49.082;8.200;2024-01-07T04:25:48;15.80;;;8.35;;
7199;SDS011;3641;49.082;8.200;2024-01-07T04:28:14;15.43;;;8.32;;
7199;SDS011;3641;49.082;8.200;2024-01-07T04:30:41;13.57;;;8.05;;
7199;SDS011;3641;49.082;8.200;2024-01-07T04:33:07;15.70;;;8.18;;
7199;SDS011;3641;49.082;8.200;2024-01-07T04:35:33;14.40;;;8.13;;
7199;SDS011;3641;49.082;8.200;2024-01-07T04:38:00;15.05;;;8.27;;
7199;SDS011;3641;49.082;8.200;2024-01-07T04:40:27;12.32;;;7.53;;
7199;SDS011;3641;49.082;8.200;2024-01-07T04:42:54;15.30;;;8.30;;
7199;SDS011;3641;49.082;8.200;2024-01-07T04:45:21;14.50;;;7.95;;
7199;SDS011;3641;49.082;8.200;2024-01-07T04:47:47;14.30;;;8.13;;
7199;SDS011;3641;49.082;8.200;2024-01-07T04:50:14;14.82;;;8.10;;
7199;SDS011;3641;49.082;8.200;2024-01-07T04:52:44;17.10;;;8.38;;
7199;SDS011;3641;49.082;8.200;2024-01-07T04:55:11;15.85;;;8.80;;
7199;SDS011;3641;49.082;8.200;2024-01-07T04:57:37;14.05;;;8.05;;
7199;SDS011;3641;49.082;8.200;2024-01-07T05:00:06;16.02;;;8.50;;
7199;SDS011;3641;49.082;8.200;2024-01-07T05:02:33;15.43;;;8.75;;
7199;SDS011;3641;49.082;8.200;2024-01-07T05:04:59;17.98;;;8.07;;
7199;SDS011;3641;49.082;8.200;2024-01-07T05:07:26;18.25;;;9.60;;
7199;SDS011;3641;49.082;8.200;2024-01-07T05:09:52;16.52;;;9.38;;
7199;SDS011;3641;49.082;8.200;2024-01-07T05:12:19;16.05;;;8.95;;
7199;SDS011;3641;49.082;8.200;2024-01-07T05:14:46;16.00;;;8.95;;
7199;SDS011;3641;49.082;8.200;2024-01-07T05:17:14;16.50;;;9.00;;
7199;SDS011;3641;49.082;8.200;2024-01-07T05:19:40;13.38;;;8.02;;
7199;SDS011;3641;49.082;8.200;2024-01-07T05:22:07;17.15;;;9.43;;
7199;SDS011;3641;49.082;8.200;2024-01-07T05:24:33;16.33;;;8.48;;
7199;SDS011;3641;49.082;8.200;2024-01-07T05:27:02;16.52;;;8.93;;
7199;SDS011;3641;49.082;8.200;2024-01-07T05:29:29;16.25;;;8.80;;
7199;SDS011;3641;49.082;8.200;2024-01-07T05:31:55;15.27;;;8.35;;
7199;SDS011;3641;49.082;8.200;2024-01-07T05:34:24;17.10;;;8.93;;
7199;SDS011;3641;49.082;8.200;2024-01-07T05:36:50;18.70;;;8.82;;
7199;SDS011;3641;49.082;8.200;2024-01-07T05:39:17;17.52;;;9.43;;
7199;SDS011;3641;49.082;8.200;2024-01-07T05:41:43;18.67;;;9.65;;
7199;SDS011;3641;49.082;8.200;2024-01-07T05:44:11;16.58;;;9.30;;
7199;SDS011;3641;49.082;8.200;2024-01-07T05:46:38;17.48;;;8.98;;
7199;SDS011;3641;49.082;8.200;2024-01-07T05:49:05;17.88;;;10.15;;
7199;SDS011;3641;49.082;8.200;2024-01-07T05:51:33;15.77;;;9.18;;
7199;SDS011;3641;49.082;8.200;2024-01-07T05:54:00;13.27;;;8.02;;
7199;SDS011;3641;49.082;8.200;2024-01-07T05:56:26;15.57;;;9.25;;
7199;SDS011;3641;49.082;8.200;2024-01-07T05:58:53;19.13;;;8.80;;
7199;SDS011;3641;49.082;8.200;2024-01-07T06:01:20;17.55;;;9.75;;
7199;SDS011;3641;49.082;8.200;2024-01-07T06:03:46;16.20;;;9.23;;
7199;SDS011;3641;49.082;8.200;2024-01-07T06:06:14;15.73;;;8.90;;
7199;SDS011;3641;49.082;8.200;2024-01-07T06:08:43;16.95;;;9.60;;
7199;SDS011;3641;49.082;8.200;2024-01-07T06:11:09;16.60;;;8.75;;
7199;SDS011;3641;49.082;8.200;2024-01-07T06:13:43;15.95;;;9.50;;
7199;SDS011;3641;49.082;8.200;2024-01-07T06:16:13;16.48;;;9.43;;
7199;SDS011;3641;49.082;8.200;2024-01-07T06:18:40;18.35;;;9.68;;
7199;SDS011;3641;49.082;8.200;2024-01-07T06:21:06;16.60;;;9.52;;
7199;SDS011;3641;49.082;8.200;2024-01-07T06:23:33;18.10;;;10.30;;
7199;SDS011;3641;49.082;8.200;2024-01-07T06:26:02;18.05;;;9.10;;
7199;SDS011;3641;49.082;8.200;2024-01-07T06:28:29;15.82;;;9.15;;
7199;SDS011;3641;49.082;8.200;2024-01-07T06:30:55;14.98;;;8.88;;
7199;SDS011;3641;49.082;8.200;2024-01-07T06:33:22;16.15;;;9.35;;
7199;SDS011;3641;49.082;8.200;2024-01-07T06:35:51;16.33;;;8.90;;
7199;SDS011;3641;49.082;8.200;2024-01-07T06:38:19;16.52;;;8.95;;
7199;SDS011;3641;49.082;8.200;2024-01-07T06:40:46;16.60;;;9.27;;
7199;SDS011;3641;49.082;8.200;2024-01-07T06:43:13;17.42;;;8.90;;
7199;SDS011;3641;49.082;8.200;2024-01-07T06:45:40;17.45;;;9.25;;
7199;SDS011;3641;49.082;8.200;2024-01-07T06:48:07;17.88;;;9.43;;
7199;SDS011;3641;49.082;8.200;2024-01-07T06:50:33;18.75;;;9.75;;
7199;SDS011;3641;49.082;8.200;2024-01-07T06:53:00;17.98;;;9.35;;
7199;SDS011;3641;49.082;8.200;2024-01-07T06:55:26;16.33;;;8.60;;
7199;SDS011;3641;49.082;8.200;2024-01-07T06:57:53;17.00;;;9.60;;
7199;SDS011;3641;49.082;8.200;2024-01-07T07:00:21;21.23;;;10.52;;
7199;SDS011;3641;49.082;8.200;2024-01-07T07:02:48;21.48;;;10.30;;
7199;SDS011;3641;49.082;8.200;2024-01-07T07:05:15;17.17;;;9.20;;
7199;SDS011;3641;49.082;8.200;2024-01-07T07:07:41;20.60;;;8.65;;
7199;SDS011;3641;49.082;8.200;2024-01-07T07:10:08;18.70;;;8.90;;
7199;SDS011;3641;49.082;8.200;2024-01-07T07:12:35;18.25;;;9.13;;
7199;SDS011;3641;49.082;8.200;2024-01-07T07:15:01;17.83;;;9.50;;
7199;SDS011;3641;49.082;8.200;2024-01-07T07:17:29;22.35;;;9.35;;
7199;SDS011;3641;49.082;8.200;2024-01-07T07:19:55;17.58;;;9.25;;
7199;SDS011;3641;49.082;8.200;2024-01-07T07:22:22;18.92;;;9.63;;
7199;SDS011;3641;49.082;8.200;2024-01-07T07:24:48;19.98;;;10.55;;
7199;SDS011;3641;49.082;8.200;2024-01-07T07:27:14;19.00;;;9.52;;
7199;SDS011;3641;49.082;8.200;2024-01-07T07:29:41;19.92;;;9.82;;
7199;SDS011;3641;49.082;8.200;2024-01-07T07:32:07;20.13;;;9.40;;
7199;SDS011;3641;49.082;8.200;2024-01-07T07:34:35;18.38;;;9.48;;
7199;SDS011;3641;49.082;8.200;2024-01-07T07:37:02;20.70;;;10.05;;
7199;SDS011;3641;49.082;8.200;2024-01-07T07:39:28;21.10;;;9.80;;
7199;SDS011;3641;49.082;8.200;2024-01-07T07:41:54;20.08;;;10.10;;
7199;SDS011;3641;49.082;8.200;2024-01-07T07:44:21;18.17;;;9.00;;
7199;SDS011;3641;49.082;8.200;2024-01-07T07:46:47;22.23;;;11.10;;
7199;SDS011;3641;49.082;8.200;2024-01-07T07:49:14;19.85;;;9.55;;
7199;SDS011;3641;49.082;8.200;2024-01-07T07:51:43;21.75;;;11.05;;
7199;SDS011;3641;49.082;8.200;2024-01-07T07:54:09;20.92;;;10.40;;
7199;SDS011;3641;49.082;8.200;2024-01-07T07:56:36;23.27;;;10.88;;
7199;SDS011;3641;49.082;8.200;2024-01-07T07:59:02;21.70;;;10.20;;
7199;SDS011;3641;49.082;8.200;2024-01-07T08:01:28;22.02;;;10.27;;
7199;SDS011;3641;49.082;8.200;2024-01-07T08:03:55;18.00;;;9.48;;
7199;SDS011;3641;49.082;8.200;2024-01-07T08:06:21;18.88;;;9.85;;
7199;SDS011;3641;49.082;8.200;2024-01-07T08:08:49;22.85;;;11.55;;
7199;SDS011;3641;49.082;8.200;2024-01-07T08:11:16;21.55;;;10.70;;
7199;SDS011;3641;49.082;8.200;2024-01-07T08:13:43;21.00;;;10.43;;
7199;SDS011;3641;49.082;8.200;2024-01-07T08:16:09;19.70;;;9.55;;
7199;SDS011;3641;49.082;8.200;2024-01-07T08:18:36;20.13;;;10.07;;
7199;SDS011;3641;49.082;8.200;2024-01-07T08:21:02;18.17;;;10.60;;
7199;SDS011;3641;49.082;8.200;2024-01-07T08:23:29;20.85;;;10.55;;
7199;SDS011;3641;49.082;8.200;2024-01-07T08:25:57;19.98;;;9.60;;
7199;SDS011;3641;49.082;8.200;2024-01-07T08:28:24;18.88;;;10.82;;
7199;SDS011;3641;49.082;8.200;2024-01-07T08:30:50;18.92;;;10.15;;
7199;SDS011;3641;49.082;8.200;2024-01-07T08:33:18;17.67;;;9.15;;
7199;SDS011;3641;49.082;8.200;2024-01-07T08:35:44;18.92;;;9.77;;
7199;SDS011;3641;49.082;8.200;2024-01-07T08:38:11;18.10;;;9.95;;
7199;SDS011;3641;49.082;8.200;2024-01-07T08:40:39;19.25;;;9.98;;
7199;SDS011;3641;49.082;8.200;2024-01-07T08:43:07;16.85;;;9.27;;
7199;SDS011;3641;49.082;8.200;2024-01-07T08:45:33;17.42;;;9.48;;
7199;SDS011;3641;49.082;8.200;2024-01-07T08:47:59;18.15;;;9.50;;
7199;SDS011;3641;49.082;8.200;2024-01-07T08:50:26;19.10;;;10.43;;
7199;SDS011;3641;49.082;8.200;2024-01-07T08:52:52;22.75;;;11.07;;
7199;SDS011;3641;49.082;8.200;2024-01-07T08:55:19;18.10;;;10.30;;
7199;SDS011;3641;49.082;8.200;2024-01-07T08:57:45;18.27;;;10.23;;
7199;SDS011;3641;49.082;8.200;2024-01-07T09:00:15;20.48;;;10.75;;
7199;SDS011;3641;49.082;8.200;2024-01-07T09:02:42;21.40;;;10.65;;
7199;SDS011;3641;49.082;8.200;2024-01-07T09:05:09;23.20;;;12.30;;
7199;SDS011;3641;49.082;8.200;2024-01-07T09:07:35;20.42;;;10.70;;
7199;SDS011;3641;49.082;8.200;2024-01-07T09:10:02;20.48;;;11.57;;
7199;SDS011;3641;49.082;8.200;2024-01-07T09:12:33;20.60;;;11.93;;
7199;SDS011;3641;49.082;8.200;2024-01-07T09:15:00;21.83;;;12.05;;
7199;SDS011;3641;49.082;8.200;2024-01-07T09:17:27;24.90;;;12.02;;
7199;SDS011;3641;49.082;8.200;2024-01-07T09:19:54;21.17;;;12.60;;
7199;SDS011;3641;49.082;8.200;2024-01-07T09:22:20;22.40;;;12.13;;
7199;SDS011;3641;49.082;8.200;2024-01-07T09:24:47;23.83;;;12.43;;
7199;SDS011;3641;49.082;8.200;2024-01-07T09:27:13;25.13;;;13.77;;
7199;SDS011;3641;49.082;8.200;2024-01-07T09:29:40;24.92;;;13.13;;
7199;SDS011;3641;49.082;8.200;2024-01-07T09:32:06;26.45;;;13.82;;
7199;SDS011;3641;49.082;8.200;2024-01-07T09:34:34;24.33;;;14.15;;
7199;SDS011;3641;49.082;8.200;2024-01-07T09:37:01;25.42;;;14.25;;
7199;SDS011;3641;49.082;8.200;2024-01-07T09:39:27;27.80;;;14.73;;
7199;SDS011;3641;49.082;8.200;2024-01-07T09:41:53;26.15;;;14.30;;
7199;SDS011;3641;49.082;8.200;2024-01-07T09:44:20;26.02;;;13.60;;
7199;SDS011;3641;49.082;8.200;2024-01-07T09:46:46;25.45;;;13.25;;
7199;SDS011;3641;49.082;8.200;2024-01-07T09:49:16;24.42;;;14.30;;
7199;SDS011;3641;49.082;8.200;2024-01-07T09:51:45;24.58;;;13.15;;
7199;SDS011;3641;49.082;8.200;2024-01-07T09:54:12;23.50;;;12.15;;
7199;SDS011;3641;49.082;8.200;2024-01-07T09:56:42;25.00;;;13.27;;
7199;SDS011;3641;49.082;8.200;2024-01-07T09:59:12;21.67;;;12.90;;
7199;SDS011;3641;49.082;8.200;2024-01-07T10:01:40;23.17;;;13.25;;
7199;SDS011;3641;49.082;8.200;2024-01-07T10:04:07;23.58;;;13.35;;
7199;SDS011;3641;49.082;8.200;2024-01-07T10:06:33;22.30;;;12.98;;
7199;SDS011;3641;49.082;8.200;2024-01-07T10:09:01;19.67;;;11.55;;
7199;SDS011;3641;49.082;8.200;2024-01-07T10:11:28;22.13;;;12.23;;
7199;SDS011;3641;49.082;8.200;2024-01-07T10:13:54;21.25;;;12.18;;
7199;SDS011;3641;49.082;8.200;2024-01-07T10:16:20;23.95;;;12.55;;
7199;SDS011;3641;49.082;8.200;2024-01-07T10:18:47;23.15;;;13.60;;
7199;SDS011;3641;49.082;8.200;2024-01-07T10:21:13;22.67;;;12.52;;
7199;SDS011;3641;49.082;8.200;2024-01-07T10:23:40;20.63;;;12.02;;
7199;SDS011;3641;49.082;8.200;2024-01-07T10:26:08;21.95;;;11.68;;
7199;SDS011;3641;49.082;8.200;2024-01-07T10:28:35;28.08;;;14.85;;
7199;SDS011;3641;49.082;8.200;2024-01-07T10:31:03;24.15;;;12.07;;
7199;SDS011;3641;49.082;8.200;2024-01-07T10:33:30;23.52;;;12.30;;
7199;SDS011;3641;49.082;8.200;2024-01-07T10:36:00;22.38;;;12.90;;
7199;SDS011;3641;49.082;8.200;2024-01-07T10:38:29;22.67;;;12.57;;
7199;SDS011;3641;49.082;8.200;2024-01-07T10:40:55;23.40;;;12.30;;
7199;SDS011;3641;49.082;8.200;2024-01-07T10:43:26;20.55;;;11.80;;
7199;SDS011;3641;49.082;8.200;2024-01-07T10:45:55;20.77;;;12.07;;
7199;SDS011;3641;49.082;8.200;2024-01-07T10:48:26;19.45;;;11.07;;
7199;SDS011;3641;49.082;8.200;2024-01-07T10:50:56;20.55;;;10.48;;
7199;SDS011;3641;49.082;8.200;2024-01-07T10:53:26;17.80;;;10.43;;
7199;SDS011;3641;49.082;8.200;2024-01-07T10:55:59;19.40;;;11.25;;
7199;SDS011;3641;49.082;8.200;2024-01-07T10:58:31;23.15;;;11.88;;
7199;SDS011;3641;49.082;8.200;2024-01-07T11:00:58;22.35;;;12.52;;
7199;SDS011;3641;49.082;8.200;2024-01-07T11:03:31;27.52;;;14.82;;
7199;SDS011;3641;49.082;8.200;2024-01-07T11:06:05;19.48;;;12.13;;
7199;SDS011;3641;49.082;8.200;2024-01-07T11:08:39;21.75;;;11.52;;
7199;SDS011;3641;49.082;8.200;2024-01-07T11:11:13;20.60;;;11.57;;
7199;SDS011;3641;49.082;8.200;2024-01-07T11:13:43;19.48;;;11.60;;
7199;SDS011;3641;49.082;8.200;2024-01-07T11:16:10;19.88;;;11.23;;
7199;SDS011;3641;49.082;8.200;2024-01-07T11:18:40;17.92;;;10.27;;
7199;SDS011;3641;49.082;8.200;2024-01-07T11:21:12;20.92;;;11.13;;
7199;SDS011;3641;49.082;8.200;2024-01-07T11:23:46;20.83;;;11.50;;
7199;SDS011;3641;49.082;8.200;2024-01-07T11:26:13;23.25;;;11.05;;
7199;SDS011;3641;49.082;8.200;2024-01-07T11:28:44;21.13;;;11.35;;
7199;SDS011;3641;49.082;8.200;2024-01-07T11:31:11;21.85;;;11.38;;
7199;SDS011;3641;49.082;8.200;2024-01-07T11:33:38;21.50;;;12.00;;
7199;SDS011;3641;49.082;8.200;2024-01-07T11:36:04;22.00;;;11.82;;
7199;SDS011;3641;49.082;8.200;2024-01-07T11:38:31;21.23;;;11.93;;
7199;SDS011;3641;49.082;8.200;2024-01-07T11:40:57;18.63;;;10.20;;
7199;SDS011;3641;49.082;8.200;2024-01-07T11:43:25;19.48;;;10.68;;
7199;SDS011;3641;49.082;8.200;2024-01-07T11:45:53;20.33;;;10.75;;
7199;SDS011;3641;49.082;8.200;2024-01-07T11:48:21;18.90;;;10.32;;
7199;SDS011;3641;49.082;8.200;2024-01-07T11:50:47;19.67;;;10.60;;
7199;SDS011;3641;49.082;8.200;2024-01-07T11:53:14;17.67;;;9.90;;
7199;SDS011;3641;49.082;8.200;2024-01-07T11:55:41;17.58;;;10.48;;
7199;SDS011;3641;49.082;8.200;2024-01-07T11:58:08;20.35;;;10.50;;
7199;SDS011;3641;49.082;8.200;2024-01-07T12:00:34;18.92;;;10.70;;
7199;SDS011;3641;49.082;8.200;2024-01-07T12:03:03;17.52;;;9.75;;
7199;SDS011;3641;49.082;8.200;2024-01-07T12:05:30;17.77;;;10.00;;
7199;SDS011;3641;49.082;8.200;2024-01-07T12:07:56;16.77;;;10.25;;
7199;SDS011;3641;49.082;8.200;2024-01-07T12:10:23;17.92;;;9.85;;
7199;SDS011;3641;49.082;8.200;2024-01-07T12:12:50;17.02;;;9.60;;
7199;SDS011;3641;49.082;8.200;2024-01-07T12:15:17;15.98;;;9.48;;
7199;SDS011;3641;49.082;8.200;2024-01-07T12:17:48;16.65;;;9.52;;
7199;SDS011;3641;49.082;8.200;2024-01-07T12:20:22;17.88;;;9.73;;
7199;SDS011;3641;49.082;8.200;2024-01-07T12:22:49;17.10;;;9.82;;
7199;SDS011;3641;49.082;8.200;2024-01-07T12:25:20;16.17;;;9.10;;
7199;SDS011;3641;49.082;8.200;2024-01-07T12:27:47;16.25;;;9.00;;
7199;SDS011;3641;49.082;8.200;2024-01-07T12:30:17;14.30;;;8.70;;
7199;SDS011;3641;49.082;8.200;2024-01-07T12:32:44;14.40;;;8.63;;
7199;SDS011;3641;49.082;8.200;2024-01-07T12:35:11;16.67;;;8.93;;
7199;SDS011;3641;49.082;8.200;2024-01-07T12:37:39;16.73;;;8.63;;
7199;SDS011;3641;49.082;8.200;2024-01-07T12:40:06;16.35;;;9.60;;
7199;SDS011;3641;49.082;8.200;2024-01-07T12:42:35;15.13;;;8.70;;
7199;SDS011;3641;49.082;8.200;2024-01-07T12:45:02;15.52;;;8.70;;
7199;SDS011;3641;49.082;8.200;2024-01-07T12:47:29;17.27;;;9.95;;
7199;SDS011;3641;49.082;8.200;2024-01-07T12:49:55;15.05;;;9.15;;
7199;SDS011;3641;49.082;8.200;2024-01-07T12:52:23;17.10;;;9.57;;
7199;SDS011;3641;49.082;8.200;2024-01-07T12:54:51;13.73;;;8.65;;
7199;SDS011;3641;49.082;8.200;2024-01-07T12:57:17;12.57;;;8.05;;
7199;SDS011;3641;49.082;8.200;2024-01-07T12:59:44;14.13;;;8.52;;
7199;SDS011;3641;49.082;8.200;2024-01-07T13:02:10;14.82;;;8.63;;
7199;SDS011;3641;49.082;8.200;2024-01-07T13:04:36;14.80;;;8.85;;
7199;SDS011;3641;49.082;8.200;2024-01-07T13:07:03;13.63;;;8.00;;
7199;SDS011;3641;49.082;8.200;2024-01-07T13:09:30;12.98;;;7.88;;
7199;SDS011;3641;49.082;8.200;2024-01-07T13:11:57;13.70;;;8.35;;
7199;SDS011;3641;49.082;8.200;2024-01-07T13:14:24;13.27;;;8.60;;
7199;SDS011;3641;49.082;8.200;2024-01-07T13:16:50;13.88;;;8.25;;
7199;SDS011;3641;49.082;8.200;2024-01-07T13:19:17;19.23;;;10.00;;
7199;SDS011;3641;49.082;8.200;2024-01-07T13:21:43;16.13;;;9.00;;
7199;SDS011;3641;49.082;8.200;2024-01-07T13:24:10;14.85;;;9.00;;
7199;SDS011;3641;49.082;8.200;2024-01-07T13:26:38;16.52;;;9.43;;
7199;SDS011;3641;49.082;8.200;2024-01-07T13:29:08;14.98;;;8.65;;
7199;SDS011;3641;49.082;8.200;2024-01-07T13:31:34;16.08;;;9.00;;
7199;SDS011;3641;49.082;8.200;2024-01-07T13:34:01;17.90;;;9.55;;
7199;SDS011;3641;49.082;8.200;2024-01-07T13:36:28;15.32;;;8.52;;
7199;SDS011;3641;49.082;8.200;2024-01-07T13:38:54;16.85;;;9.75;;
7199;SDS011;3641;49.082;8.200;2024-01-07T13:41:21;16.17;;;9.52;;
7199;SDS011;3641;49.082;8.200;2024-01-07T13:43:48;16.98;;;10.00;;
7199;SDS011;3641;49.082;8.200;2024-01-07T13:46:16;15.40;;;9.30;;
7199;SDS011;3641;49.082;8.200;2024-01-07T13:48:44;17.10;;;9.55;;
7199;SDS011;3641;49.082;8.200;2024-01-07T13:51:10;16.17;;;9.60;;
7199;SDS011;3641;49.082;8.200;2024-01-07T13:53:37;16.83;;;9.80;;
7199;SDS011;3641;49.082;8.200;2024-01-07T13:56:04;17.15;;;9.80;;
7199;SDS011;3641;49.082;8.200;2024-01-07T13:58:32;16.35;;;9.38;;
7199;SDS011;3641;49.082;8.200;2024-01-07T14:00:58;17.73;;;10.18;;
7199;SDS011;3641;49.082;8.200;2024-01-07T14:03:26;16.88;;;9.55;;
7199;SDS011;3641;49.082;8.200;2024-01-07T14:05:53;19.35;;;10.52;;
7199;SDS011;3641;49.082;8.200;2024-01-07T14:08:19;17.48;;;10.10;;
7199;SDS011;3641;49.082;8.200;2024-01-07T14:10:46;19.33;;;9.88;;
7199;SDS011;3641;49.082;8.200;2024-01-07T14:13:13;20.50;;;10.25;;
7199;SDS011;3641;49.082;8.200;2024-01-07T14:15:39;16.77;;;9.63;;
7199;SDS011;3641;49.082;8.200;2024-01-07T14:18:06;17.85;;;9.68;;
7199;SDS011;3641;49.082;8.200;2024-01-07T14:20:36;15.70;;;9.07;;
7199;SDS011;3641;49.082;8.200;2024-01-07T14:23:02;20.17;;;10.35;;
7199;SDS011;3641;49.082;8.200;2024-01-07T14:25:29;17.75;;;9.68;;
7199;SDS011;3641;49.082;8.200;2024-01-07T14:27:55;18.80;;;10.00;;
7199;SDS011;3641;49.082;8.200;2024-01-07T14:30:22;16.55;;;9.73;;
7199;SDS011;3641;49.082;8.200;2024-01-07T14:32:48;18.63;;;9.65;;
7199;SDS011;3641;49.082;8.200;2024-01-07T14:35:15;15.43;;;9.32;;
7199;SDS011;3641;49.082;8.200;2024-01-07T14:37:43;19.13;;;10.40;;
7199;SDS011;3641;49.082;8.200;2024-01-07T14:40:10;16.08;;;8.77;;
7199;SDS011;3641;49.082;8.200;2024-01-07T14:42:37;18.08;;;10.05;;
7199;SDS011;3641;49.082;8.200;2024-01-07T14:45:03;18.27;;;9.75;;
7199;SDS011;3641;49.082;8.200;2024-01-07T14:47:30;16.33;;;8.73;;
7199;SDS011;3641;49.082;8.200;2024-01-07T14:49:57;23.30;;;11.60;;
7199;SDS011;3641;49.082;8.200;2024-01-07T14:52:23;20.65;;;10.13;;
7199;SDS011;3641;49.082;8.200;2024-01-07T14:54:53;18.05;;;10.15;;
7199;SDS011;3641;49.082;8.200;2024-01-07T14:57:21;21.23;;;10.07;;